Time;durP1;ratioP1;P1;durP2;ratioP2;P2;SDS_P1;SDS_P2;PMS_P1;PMS_P2;Temp;Humidity;BMP_temperature;BMP_pressure;BME280_temperature;BME280_humidity;BME280_pressure;Samples;Min_cycle;Max_cycle;Signal;HPM_P1;HPM_P2
2021/10/24 09:29:12;;;;;;;11.93;3.97;;;;;;;16.95;42.23;102100.14;1496866;85;26939;-85
2021/10/24 09:31:46;;;;;;;10.80;3.43;;;;;;;17.06;42.43;102096.77;1479166;86;21588;-86
2021/10/24 09:34:21;;;;;;;7.95;4.17;;;;;;;16.93;36.43;102105.63;1506380;86;21520;-87
2021/10/24 09:36:59;;;;;;;9.38;3.60;;;;;;;17.10;38.35;102102.16;1507454;86;21469;-87
2021/10/24 09:39:31;;;;;;;7.58;3.42;;;;;;;17.21;36.34;102097.59;1468889;89;21529;-87
2021/10/24 09:42:17;;;;;;;6.78;3.72;;;;;;;17.05;36.55;102100.41;1457121;89;21567;-86
2021/10/24 09:45:08;;;;;;;10.13;3.45;;;;;;;17.27;38.98;102103.69;1462141;89;22462;-86
2021/10/24 09:47:41;;;;;;;9.83;2.85;;;;;;;16.74;34.95;102105.67;1468978;89;21560;-87
2021/10/24 09:50:32;;;;;;;10.03;3.92;;;;;;;17.01;37.26;102111.08;1458942;86;21448;-88
2021/10/24 09:56:15;;;;;;;10.40;4.33;;;;;;;17.89;37.95;102100.60;1424606;91;21635;-87
2021/10/24 09:58:45;;;;;;;5.92;3.12;;;;;;;18.42;37.79;102106.35;1431092;91;21569;-89
2021/10/24 10:01:17;;;;;;;10.68;3.72;;;;;;;18.91;37.15;102102.60;1404856;91;22368;-89
2021/10/24 10:03:45;;;;;;;6.28;3.20;;;;;;;18.94;35.75;102106.30;1414424;91;21702;-90
2021/10/24 10:06:11;;;;;;;7.62;3.80;;;;;;;18.61;31.85;102111.13;1408247;93;21614;-90
2021/10/24 10:08:43;;;;;;;7.47;3.33;;;;;;;18.56;33.39;102104.93;1400437;93;22478;-89
2021/10/24 10:11:21;;;;;;;11.60;3.80;;;;;;;18.83;34.96;102109.77;1408866;91;21473;-88
2021/10/24 10:13:53;;;;;;;7.30;2.87;;;;;;;18.54;33.56;102099.38;1428561;91;21561;-85
2021/10/24 10:16:20;;;;;;;9.23;3.62;;;;;;;18.85;32.49;102100.57;1403431;93;22546;-86
2021/10/24 10:19:05;;;;;;;5.80;2.90;;;;;;;19.13;33.21;102094.95;1420915;91;21621;-86
2021/10/24 10:21:44;;;;;;;4.37;2.62;;;;;;;19.26;32.62;102093.98;1426612;91;21599;-86
2021/10/24 10:24:36;;;;;;;8.00;2.55;;;;;;;19.05;32.08;102105.68;1422231;91;22382;-88
2021/10/24 10:27:24;;;;;;;8.43;2.77;;;;;;;18.96;31.63;102106.62;1424148;91;21502;-88
2021/10/24 10:30:00;;;;;;;7.75;2.47;;;;;;;18.81;30.29;102103.22;1422694;89;22928;-88
2021/10/24 10:32:48;;;;;;;4.53;2.20;;;;;;;19.14;32.45;102103.36;1422616;91;22386;-87
2021/10/24 10:35:48;;;;;;;6.95;3.22;;;;;;;19.32;33.11;102096.01;1401889;93;21544;-87
2021/10/24 10:38:40;;;;;;;7.42;2.80;;;;;;;18.42;29.74;102098.31;1398485;86;21668;-88
2021/10/24 10:41:14;;;;;;;11.57;3.12;;;;;;;18.54;33.20;102088.66;1374017;95;21521;-87
2021/10/24 10:44:00;;;;;;;8.75;4.28;;;;;;;18.20;33.14;102090.28;1379623;94;21513;-89
2021/10/24 10:46:29;;;;;;;7.25;2.90;;;;;;;17.56;33.15;102078.88;1377557;94;21684;-89
2021/10/24 10:49:17;;;;;;;6.73;3.03;;;;;;;17.44;33.27;102085.46;1376437;94;21566;-89
2021/10/24 10:51:43;;;;;;;7.58;3.65;;;;;;;17.50;33.91;102082.67;1384253;94;21476;-89
2021/10/24 10:54:09;;;;;;;7.08;2.77;;;;;;;17.83;33.86;102083.81;1380887;94;21735;-89
2021/10/24 10:56:54;;;;;;;7.33;3.30;;;;;;;17.97;32.33;102089.95;1373596;94;21484;-89
2021/10/24 10:59:37;;;;;;;5.62;2.92;;;;;;;17.81;31.61;102078.63;1391627;94;21558;-90
2021/10/24 11:02:28;;;;;;;7.85;2.87;;;;;;;17.85;30.88;102083.17;1371507;94;21558;-89
2021/10/24 11:05:01;;;;;;;9.88;3.40;;;;;;;17.96;32.38;102080.75;1362796;96;21618;-89
2021/10/24 11:07:40;;;;;;;5.62;2.80;;;;;;;17.39;33.10;102080.22;1373610;95;21617;-89
2021/10/24 11:10:16;;;;;;;6.60;3.50;;;;;;;16.91;33.58;102087.04;1371174;96;21499;-89
2021/10/24 11:12:46;;;;;;;22.13;12.33;;;;;;;16.67;33.87;102094.73;1368689;96;21633;-88
2021/10/24 11:15:15;;;;;;;;;;;;;;;16.45;34.09;102087.91;1386062;94;21632;-89
2021/10/24 11:17:49;;;;;;;10.50;4.97;;;;;;;16.51;34.10;102084.66;1374583;94;20311;-89
2021/10/24 11:20:29;;;;;;;5.15;3.10;;;;;;;16.79;34.56;102088.73;1369378;96;22557;-89
2021/10/24 11:23:05;;;;;;;7.47;3.65;;;;;;;17.26;33.98;102084.59;1371535;96;21521;-89
2021/10/24 11:25:37;;;;;;;11.50;3.05;;;;;;;17.71;33.99;102086.37;1372912;94;21506;-89
2021/10/24 11:28:14;;;;;;;6.35;3.20;;;;;;;17.83;30.14;102087.00;1382338;94;21573;-90
2021/10/24 11:30:42;;;;;;;5.47;3.03;;;;;;;18.01;32.73;102091.81;1383854;94;21506;-89
2021/10/24 11:33:09;;;;;;;7.97;2.98;;;;;;;17.77;32.68;102081.23;1387061;94;22431;-89
2021/10/24 11:35:39;;;;;;;6.08;2.50;;;;;;;17.35;32.80;102073.00;1379060;94;21540;-89
2021/10/24 11:38:09;;;;;;;4.37;2.23;;;;;;;17.35;32.80;102073.00;1386486;94;21440;-88
2021/10/24 11:40:40;;;;;;;12.35;3.10;;;;;;;16.90;32.80;102072.50;1383941;94;21492;-89
2021/10/24 11:43:21;;;;;;;9.73;2.72;;;;;;;16.50;33.54;102072.79;1374297;93;21477;-89
2021/10/24 11:45:52;;;;;;;11.55;3.50;;;;;;;16.10;34.17;102073.39;1375132;94;22268;-89
2021/10/24 11:48:21;;;;;;;;;;;;;;;15.92;34.62;102070.61;1383868;94;21536;-88
2021/10/24 11:51:07;;;;;;;17.15;3.25;;;;;;;15.79;35.12;102073.59;1382604;94;20333;-89
2021/10/24 11:53:47;;;;;;;10.80;3.50;;;;;;;15.64;34.97;102068.77;1385587;94;21565;-88
2021/10/24 12:01:47;;;;;;;4.77;3.10;;;;;;;15.85;35.48;102064.64;1372547;96;22562;-87
2021/10/24 12:04:14;;;;;;;6.85;2.95;;;;;;;16.15;35.66;102057.78;1353848;96;21622;-88
2021/10/24 12:07:02;;;;;;;7.45;2.80;;;;;;;16.22;35.13;102052.69;1359506;96;21488;-89
2021/10/24 12:09:38;;;;;;;7.40;3.30;;;;;;;16.17;34.25;102051.80;1358796;96;21682;-89
2021/10/24 12:12:24;;;;;;;6.80;3.10;;;;;;;16.01;33.93;102050.22;1358425;96;21540;-89
2021/10/24 12:15:06;;;;;;;9.67;2.97;;;;;;;15.73;34.20;102052.77;1340823;96;21438;-90
2021/10/24 12:17:38;;;;;;;12.03;3.30;;;;;;;15.30;35.13;102050.00;1361135;96;21488;-89
2021/10/24 12:20:29;;;;;;;9.07;3.30;;;;;;;15.09;35.67;102051.45;1371363;96;21718;-88
2021/10/24 12:23:02;;;;;;;6.28;3.00;;;;;;;14.98;35.71;102053.40;1340998;97;21637;-89
2021/10/24 12:25:52;;;;;;;7.87;2.93;;;;;;;14.79;36.10;102051.05;1351217;96;21562;-88
2021/10/24 12:28:30;;;;;;;9.25;2.85;;;;;;;14.56;36.81;102056.23;1337137;97;21735;-89
2021/10/24 12:31:19;;;;;;;8.03;2.90;;;;;;;14.41;36.87;102056.55;1335012;97;22629;-89
2021/10/24 12:33:46;;;;;;;114.60;90.57;;;;;;;14.30;36.81;102053.97;1373176;94;22079;-89
2021/10/24 12:36:32;;;;;;;12.93;6.30;;;;;;;14.23;36.93;102052.80;1392854;94;21499;-89
2021/10/24 12:39:06;;;;;;;18.30;9.80;;;;;;;14.15;36.46;102049.94;1338990;96;22460;-89
2021/10/24 12:41:40;;;;;;;24.33;13.13;;;;;;;14.09;36.92;102045.14;1361468;95;21718;-89
2021/10/24 12:44:26;;;;;;;13.47;6.00;;;;;;;14.42;37.34;102040.91;1347622;96;21509;-89
2021/10/24 12:46:54;;;;;;;8.20;3.70;;;;;;;15.12;36.30;102039.17;1362297;96;21525;-91
2021/10/24 12:49:32;;;;;;;6.60;3.07;;;;;;;16.03;35.97;102040.24;1399684;96;21598;-90
2021/10/24 12:52:14;;;;;;;9.28;2.77;;;;;;;17.04;34.62;102037.72;1378556;94;21533;-89
2021/10/24 12:54:42;;;;;;;13.85;3.62;;;;;;;17.88;33.85;102029.80;1366364;96;22450;-91
2021/10/24 12:57:14;;;;;;;4.67;2.80;;;;;;;18.23;33.33;102034.20;1364982;95;21691;-90
2021/10/24 12:59:42;;;;;;;16.32;11.15;;;;;;;17.84;30.65;102029.28;1362029;96;22497;-90
2021/10/24 13:02:09;;;;;;;7.65;3.25;;;;;;;17.31;32.40;102030.13;1360202;95;21495;-90
2021/10/24 13:04:38;;;;;;;5.45;3.20;;;;;;;16.98;32.32;102039.17;1364289;95;21547;-90
2021/10/24 13:07:04;;;;;;;7.37;2.92;;;;;;;16.51;32.88;102036.55;1357987;96;21665;-90
2021/10/24 13:09:32;;;;;;;7.27;2.57;;;;;;;16.00;33.41;102029.86;1360546;96;21554;-91
2021/10/24 13:12:00;;;;;;;10.20;3.27;;;;;;;15.48;34.02;102030.16;1359047;96;21647;-89
2021/10/24 13:14:28;;;;;;;6.60;2.50;;;;;;;15.04;34.72;102033.69;1358333;96;21583;-89
2021/10/24 13:16:54;;;;;;;7.57;2.90;;;;;;;14.72;35.01;102027.23;1362213;96;21635;-89
2021/10/24 13:19:21;;;;;;;5.40;2.33;;;;;;;14.43;36.20;102023.94;1362563;96;22104;-89
2021/10/24 13:24:18;;;;;;;13.13;3.77;;;;;;;13.88;37.20;102027.37;1363351;96;21503;-89
2021/10/24 13:26:47;;;;;;;83.17;42.83;;;;;;;13.63;37.47;102029.08;1361286;96;22589;-88
2021/10/24 13:29:16;;;;;;;42.53;17.03;;;;;;;13.46;37.88;102031.81;1354628;95;21517;-89
2021/10/24 13:31:43;;;;;;;229.17;24.40;;;;;;;13.35;38.50;102028.73;1358567;96;22078;-89
2021/10/24 13:34:09;;;;;;;187.40;20.47;;;;;;;13.28;38.95;102036.34;1377856;96;21731;-89
2021/10/24 13:36:35;;;;;;;327.83;19.43;;;;;;;13.65;39.70;102032.46;1356987;96;21525;-90
2021/10/24 13:39:03;;;;;;;18.43;3.40;;;;;;;14.12;38.85;102027.57;1364827;96;22560;-89
2021/10/24 13:41:29;;;;;;;9.80;3.73;;;;;;;14.39;37.77;102026.53;1393053;94;21802;-89
2021/10/24 13:43:56;;;;;;;200.33;12.73;;;;;;;14.53;37.29;102020.03;1379090;95;21455;-89
2021/10/24 13:46:22;;;;;;;29.40;13.33;;;;;;;14.43;37.25;102017.28;1380581;94;21454;-89
2021/10/24 13:48:48;;;;;;;44.93;26.27;;;;;;;14.38;37.63;102026.65;1366884;95;21679;-89
2021/10/24 13:51:14;;;;;;;95.83;17.47;;;;;;;14.31;37.42;102024.17;1342948;97;21510;-89
2021/10/24 13:53:41;;;;;;;42.80;6.27;;;;;;;14.16;37.38;102027.69;1342348;98;21570;-89
2021/10/24 13:56:07;;;;;;;85.50;11.87;;;;;;;13.98;37.75;102025.63;1368618;94;21492;-89
2021/10/24 13:58:34;;;;;;;98.27;14.90;;;;;;;13.76;37.78;102021.27;1379007;95;21502;-93
2021/10/24 14:01:00;;;;;;;25.00;8.23;;;;;;;13.55;38.07;102031.03;1365465;94;22780;-89
2021/10/24 14:03:26;;;;;;;36.67;10.60;;;;;;;13.33;38.82;102030.66;1370924;95;21710;-89
2021/10/24 14:05:53;;;;;;;15.33;5.80;;;;;;;13.18;39.29;102027.91;1383812;94;21461;-89
2021/10/24 14:08:19;;;;;;;11.63;4.47;;;;;;;12.97;39.76;102028.66;1373702;95;21554;-88
2021/10/24 14:10:50;;;;;;;28.57;10.67;;;;;;;12.83;39.94;102026.27;1371966;94;21521;-88
2021/10/24 14:13:14;;;;;;;18.73;11.37;;;;;;;12.75;40.30;102018.10;1370252;95;21691;-89
2021/10/24 14:15:40;;;;;;;31.87;4.27;;;;;;;12.70;40.60;102020.27;1360068;95;21495;-88
2021/10/24 14:18:06;;;;;;;13.77;2.63;;;;;;;12.69;41.03;102019.89;1375099;94;21521;-89
2021/10/24 14:20:32;;;;;;;35.83;21.90;;;;;;;12.67;40.53;102019.19;1376362;95;21435;-89
2021/10/24 14:22:58;;;;;;;31.20;20.17;;;;;;;12.69;40.32;102022.55;1382192;94;21432;-89
2021/10/24 14:25:24;;;;;;;27.03;15.87;;;;;;;12.72;40.69;102019.67;1357657;97;22452;-89
2021/10/24 14:27:50;;;;;;;144.60;84.23;;;;;;;12.77;40.82;102016.14;1349209;97;21578;-89
2021/10/24 14:30:17;;;;;;;109.93;51.43;;;;;;;13.06;40.88;102007.14;1374156;95;22405;-89
2021/10/24 14:32:43;;;;;;;351.27;168.97;;;;;;;13.58;40.45;102009.98;1367967;94;21485;-89
2021/10/24 14:35:09;;;;;;;107.50;58.57;;;;;;;13.83;39.93;102008.77;1366964;95;21547;-89
2021/10/24 14:37:37;;;;;;;112.43;50.37;;;;;;;14.09;39.42;102002.05;1380794;94;21485;-89
2021/10/24 14:40:06;;;;;;;189.10;94.20;;;;;;;14.42;38.67;102006.78;1353382;97;21421;-89
2021/10/24 14:42:32;;;;;;;190.70;99.27;;;;;;;14.68;38.71;102004.52;1357627;97;22538;-89
2021/10/24 14:44:58;;;;;;;169.93;92.40;;;;;;;14.71;37.89;101999.41;1354581;97;21480;-89
2021/10/24 14:47:24;;;;;;;87.17;44.40;;;;;;;14.54;38.81;102000.89;1372893;95;21621;-90
2021/10/24 14:49:52;;;;;;;84.40;35.83;;;;;;;14.22;38.66;102001.36;1377623;95;21642;-89
2021/10/24 14:52:19;;;;;;;351.50;43.83;;;;;;;13.84;39.18;102004.66;1388561;94;21545;-89
2021/10/24 14:54:45;;;;;;;56.03;16.50;;;;;;;13.41;39.84;102002.95;1368603;95;21501;-89
2021/10/24 14:57:11;;;;;;;33.70;18.57;;;;;;;13.07;40.51;102003.04;1378164;94;21477;-89
2021/10/24 14:59:37;;;;;;;37.27;18.73;;;;;;;12.75;41.29;102002.16;1371545;95;21570;-89
2021/10/24 15:02:08;;;;;;;15.60;8.50;;;;;;;12.42;42.42;101994.57;1385355;94;21506;-89
2021/10/24 15:04:31;;;;;;;18.03;7.60;;;;;;;12.10;42.48;101995.28;1366578;95;21733;-89
2021/10/24 15:06:58;;;;;;;49.57;10.63;;;;;;;11.80;43.64;101992.33;1382166;94;21613;-89
2021/10/24 15:09:24;;;;;;;239.67;29.43;;;;;;;11.52;44.65;101991.77;1370533;95;22559;-90
2021/10/24 15:11:50;;;;;;;184.57;23.73;;;;;;;11.26;45.87;101991.91;1377062;94;21664;-89
2021/10/24 15:14:16;;;;;;;82.10;15.27;;;;;;;11.04;45.49;101990.47;1349274;97;21658;-88
2021/10/24 15:21:51;;;;;;;34.80;11.27;;;;;;;10.46;46.03;101991.55;1353938;97;21585;-88
2021/10/24 15:24:17;;;;;;;17.27;8.07;;;;;;;10.23;48.34;101990.48;1354291;97;22412;-88
2021/10/24 15:26:44;;;;;;;16.37;8.63;;;;;;;10.05;48.87;101998.39;1377774;95;21607;-88
2021/10/24 15:29:10;;;;;;;20.83;11.70;;;;;;;9.88;49.01;101996.89;1390807;94;21713;-89
2021/10/24 15:31:40;;;;;;;46.33;23.57;;;;;;;9.73;47.73;101993.98;1371951;95;21694;-89
2021/10/24 15:34:10;;;;;;;90.57;54.07;;;;;;;9.60;47.85;102005.84;1389588;94;21586;-89
2021/10/24 15:36:37;;;;;;;38.58;21.00;;;;;;;9.46;48.27;102002.79;1347301;97;21516;-89
2021/10/24 15:39:05;;;;;;;53.53;31.63;;;;;;;9.32;48.35;102005.05;1356340;97;21547;-89
2021/10/24 15:41:33;;;;;;;38.70;20.33;;;;;;;9.20;48.85;102008.47;1389839;94;21625;-88
2021/10/24 15:44:04;;;;;;;31.23;15.93;;;;;;;9.06;48.99;102012.00;1394728;94;21418;-87
2021/10/24 15:46:32;;;;;;;30.83;14.10;;;;;;;8.93;49.45;102008.48;1390311;94;21419;-88
2021/10/24 15:48:58;;;;;;;38.63;21.73;;;;;;;8.77;50.16;102013.39;1379056;94;21996;-88
2021/10/24 15:51:24;;;;;;;31.67;16.17;;;;;;;8.59;51.90;102016.72;1356029;97;22251;-89
2021/10/24 15:53:51;;;;;;;43.60;24.13;;;;;;;8.43;51.79;102016.00;1356481;95;21510;-89
2021/10/24 15:56:17;;;;;;;55.33;30.93;;;;;;;8.28;52.32;102010.30;1382850;94;21551;-89
2021/10/24 15:58:44;;;;;;;93.13;33.37;;;;;;;8.13;52.88;102012.09;1371021;95;22730;-89
2021/10/24 16:01:10;;;;;;;240.93;40.20;;;;;;;7.98;52.96;102013.86;1379863;94;21492;-88
2021/10/24 16:03:37;;;;;;;202.50;45.77;;;;;;;7.84;54.33;102015.16;1374964;95;21784;-88
2021/10/24 16:06:05;;;;;;;99.60;34.80;;;;;;;7.72;54.28;102010.63;1382603;94;22439;-89
2021/10/24 16:08:31;;;;;;;110.67;39.80;;;;;;;7.60;54.22;102013.51;1349004;97;21555;-88
2021/10/24 16:11:06;;;;;;;89.33;48.87;;;;;;;7.51;54.38;102013.58;1357458;97;21481;-88
2021/10/24 16:13:33;;;;;;;87.53;48.60;;;;;;;7.40;54.03;102014.19;1370367;95;21629;-88
2021/10/24 16:15:59;;;;;;;89.77;48.40;;;;;;;7.32;54.47;102008.98;1387155;94;21514;-88
2021/10/24 16:18:26;;;;;;;91.27;45.53;;;;;;;7.21;55.91;102014.38;1355788;97;21503;-88
2021/10/24 16:20:53;;;;;;;119.47;41.80;;;;;;;7.11;55.66;102016.33;1387250;94;21483;-88
2021/10/24 16:23:20;;;;;;;71.90;38.10;;;;;;;7.02;55.18;102019.00;1359763;97;21459;-88
2021/10/24 16:25:47;;;;;;;75.67;38.20;;;;;;;6.93;55.42;102019.48;1375901;95;21681;-88
2021/10/24 16:28:13;;;;;;;95.17;44.77;;;;;;;6.87;56.12;102018.52;1359007;95;21788;-88
2021/10/24 16:30:39;;;;;;;96.03;44.67;;;;;;;6.78;57.18;102022.03;1362211;96;21570;-88
2021/10/24 16:33:05;;;;;;;93.90;51.80;;;;;;;6.72;56.92;102028.95;1364581;96;21504;-89
2021/10/24 16:35:31;;;;;;;100.53;52.13;;;;;;;6.63;57.60;102025.52;1366102;96;21555;-88
2021/10/24 16:37:57;;;;;;;157.83;63.30;;;;;;;6.52;58.99;102023.92;1365577;96;21497;-88
2021/10/24 16:40:24;;;;;;;188.20;70.40;;;;;;;6.40;59.07;102027.22;1362206;96;21489;-88
2021/10/24 16:42:51;;;;;;;210.57;71.07;;;;;;;6.27;59.93;102029.19;1362919;96;21556;-87
2021/10/24 16:45:18;;;;;;;245.33;80.03;;;;;;;6.17;61.74;102037.16;1361359;96;21526;-87
2021/10/24 16:47:46;;;;;;;212.73;72.37;;;;;;;6.06;61.15;102051.31;1370986;95;22370;-86
2021/10/24 16:50:16;;;;;;;296.20;91.63;;;;;;;5.84;59.97;102032.69;1369248;95;21769;-88
2021/10/24 16:52:44;;;;;;;385.30;108.63;;;;;;;5.84;59.97;102033.00;1367837;95;21644;-88
2021/10/24 16:55:11;;;;;;;423.10;121.73;;;;;;;5.78;60.24;102033.00;1367722;95;22131;-88
2021/10/24 16:57:39;;;;;;;603.53;191.07;;;;;;;5.81;60.52;102042.03;1355220;95;21495;-88
2021/10/24 17:00:08;;;;;;;574.77;181.03;;;;;;;5.81;62.28;102038.09;1372149;95;22318;-87
2021/10/24 17:02:36;;;;;;;494.23;150.07;;;;;;;5.72;62.77;102032.44;1443099;95;21475;-88
2021/10/24 17:05:05;;;;;;;419.17;127.07;;;;;;;5.72;62.77;102032.44;1369457;95;22199;-88
2021/10/24 17:07:33;;;;;;;370.93;112.43;;;;;;;5.71;62.78;102042.09;1366525;95;24408;-89
2021/10/24 17:09:59;;;;;;;455.63;136.17;;;;;;;5.61;64.95;102046.09;1372399;95;22336;-88
2021/10/24 17:12:36;;;;;;;447.67;136.53;;;;;;;5.53;64.20;102046.97;1369588;95;22841;-88
2021/10/24 17:15:03;;;;;;;459.50;138.73;;;;;;;5.45;64.51;102045.17;1368021;95;22273;-87
2021/10/24 17:17:32;;;;;;;388.40;111.60;;;;;;;5.35;63.66;102044.31;1365397;95;23269;-88
2021/10/24 17:19:59;;;;;;;260.27;82.07;;;;;;;5.31;63.65;102045.84;1362384;95;22843;-88
2021/10/24 17:22:27;;;;;;;280.97;90.60;;;;;;;5.14;63.17;102044.02;1367521;95;22328;-87
2021/10/24 17:24:53;;;;;;;200.50;68.87;;;;;;;5.14;63.17;102044.02;1365969;95;22421;-87
2021/10/24 17:27:23;;;;;;;191.47;66.50;;;;;;;5.08;63.12;102037.28;1363426;95;23300;-89
2021/10/24 17:29:51;;;;;;;218.47;72.93;;;;;;;5.09;64.12;102040.49;1366362;95;23242;-89
2021/10/24 17:32:18;;;;;;;214.23;79.27;;;;;;;4.89;65.72;102046.50;1371999;95;22391;-88
2021/10/24 17:34:46;;;;;;;228.57;82.53;;;;;;;4.89;65.72;102046.50;1372685;95;22340;-89
2021/10/24 17:37:32;;;;;;;224.07;83.97;;;;;;;4.79;65.76;102041.27;1371922;94;22523;-88
2021/10/24 17:39:59;;;;;;;217.80;79.03;;;;;;;4.61;68.87;102033.80;1416138;92;22002;-90
2021/10/24 17:42:25;;;;;;;198.63;76.43;;;;;;;4.53;68.67;102027.58;1414694;91;21994;-89
2021/10/24 17:44:54;;;;;;;203.83;74.30;;;;;;;4.53;68.67;102027.58;1418580;91;22352;-89
2021/10/24 17:47:26;;;;;;;196.80;80.30;;;;;;;4.49;68.61;102023.41;1416421;92;22033;-89
2021/10/24 17:49:52;;;;;;;186.90;77.80;;;;;;;4.44;68.07;102020.59;1418005;92;22376;-89
2021/10/24 17:52:19;;;;;;;195.73;77.10;;;;;;;4.47;67.73;102022.61;1419193;92;22507;-89
2021/10/24 17:54:45;;;;;;;147.00;63.83;;;;;;;4.46;67.64;102016.99;1419717;92;22767;-89
2021/10/24 17:57:12;;;;;;;144.17;64.20;;;;;;;4.46;67.64;102016.99;1416257;92;24045;-89
2021/10/24 17:59:38;;;;;;;156.57;61.20;;;;;;;4.41;67.41;102013.72;1407664;92;22081;-89
2021/10/24 18:02:04;;;;;;;228.03;81.37;;;;;;;4.39;66.82;102018.17;1417918;92;22050;-88
2021/10/24 18:04:31;;;;;;;264.57;90.87;;;;;;;4.40;67.18;102021.64;1409958;91;22919;-89
2021/10/24 18:06:58;;;;;;;222.10;77.87;;;;;;;4.37;67.77;102017.84;1412465;91;22218;-89
2021/10/24 18:09:24;;;;;;;193.07;72.60;;;;;;;4.31;68.12;102018.97;1419912;90;22097;-85
2021/10/24 18:11:51;;;;;;;182.73;69.23;;;;;;;4.29;67.19;102020.36;1409440;90;21924;-85
2021/10/24 18:14:22;;;;;;;185.23;69.97;;;;;;;4.29;67.19;102020.36;1402020;92;21959;-84
2021/10/24 18:16:51;;;;;;;179.23;70.40;;;;;;;4.11;69.61;102027.70;1405956;91;21910;-85
2021/10/24 18:19:17;;;;;;;166.27;66.90;;;;;;;4.11;69.61;102027.70;1408414;93;21997;-85
2021/10/24 18:21:43;;;;;;;177.00;72.00;;;;;;;3.97;70.62;102023.09;1410099;91;21859;-85
2021/10/24 18:24:10;;;;;;;216.53;83.40;;;;;;;3.89;70.23;102026.95;1425399;91;22117;-85
2021/10/24 18:26:37;;;;;;;209.00;85.57;;;;;;;3.83;69.39;102021.52;1423991;91;21896;-86
2021/10/24 18:29:06;;;;;;;211.40;88.70;;;;;;;3.83;69.39;102021.52;1423400;91;21938;-84
2021/10/24 18:31:33;;;;;;;207.53;84.87;;;;;;;3.90;69.40;102030.80;1483024;91;21848;-85
2021/10/24 18:33:59;;;;;;;210.03;79.10;;;;;;;3.88;69.19;102030.01;1409277;93;21786;-85
2021/10/24 18:36:27;;;;;;;194.50;78.93;;;;;;;3.84;68.92;102028.45;1395797;93;21752;-84
2021/10/24 18:38:53;;;;;;;176.30;69.70;;;;;;;3.83;69.17;102038.55;1388415;93;21812;-85
2021/10/24 18:41:21;;;;;;;171.27;68.70;;;;;;;3.78;69.25;102033.95;1375216;95;21916;-85
2021/10/24 18:43:48;;;;;;;155.23;65.47;;;;;;;3.74;69.14;102033.67;1398476;94;21892;-86
2021/10/24 18:46:15;;;;;;;133.43;58.53;;;;;;;3.66;69.76;102027.92;1470044;93;21620;-87
2021/10/24 18:48:44;;;;;;;148.60;61.20;;;;;;;3.60;68.86;102033.80;1473254;93;21725;-86
2021/10/24 18:51:12;;;;;;;159.23;66.03;;;;;;;3.56;69.03;102031.36;1329775;93;22402;-87
2021/10/24 18:53:38;;;;;;;186.00;72.93;;;;;;;3.51;69.03;102031.57;1343795;93;21613;-87
2021/10/24 18:56:07;;;;;;;176.97;71.20;;;;;;;3.47;69.48;102027.81;1316660;94;21580;-86
2021/10/24 18:58:35;;;;;;;150.13;61.80;;;;;;;3.44;69.92;102034.03;1459118;93;21593;-87
2021/10/24 19:01:05;;;;;;;156.40;63.57;;;;;;;3.39;70.88;102026.81;1466883;93;22543;-87
2021/10/24 19:03:34;;;;;;;158.97;65.92;;;;;;;3.37;70.34;102029.97;1470568;93;21763;-87
2021/10/24 19:06:03;;;;;;;167.17;71.53;;;;;;;3.37;69.66;102033.90;1464428;93;21532;-87
2021/10/24 19:08:32;;;;;;;172.17;75.43;;;;;;;3.34;69.64;102024.40;1323553;93;23223;-87
2021/10/24 19:11:01;;;;;;;171.87;75.53;;;;;;;3.31;69.43;102026.27;1334439;93;21622;-87
2021/10/24 19:13:33;;;;;;;162.07;74.03;;;;;;;3.26;69.88;102026.47;1380311;93;21685;-85
2021/10/24 19:16:03;;;;;;;165.77;73.63;;;;;;;3.19;70.05;102024.15;1395921;92;21701;-87
2021/10/24 19:18:32;;;;;;;171.77;74.03;;;;;;;3.11;69.63;102025.31;1400275;93;21677;-86
2021/10/24 19:21:00;;;;;;;159.57;65.20;;;;;;;3.08;69.66;102021.52;1392369;93;21910;-87
2021/10/24 19:23:28;;;;;;;134.07;61.37;;;;;;;3.03;70.51;102018.69;1397433;93;21780;-87
2021/10/24 19:25:55;;;;;;;130.53;55.97;;;;;;;2.97;70.95;102017.16;1395313;93;21882;-86
2021/10/24 19:28:26;;;;;;;127.23;54.87;;;;;;;2.95;70.16;102022.89;1409246;93;21846;-86
2021/10/24 19:30:55;;;;;;;131.07;57.90;;;;;;;2.96;69.80;102026.36;1402730;92;21858;-86
2021/10/24 19:33:21;;;;;;;126.87;58.37;;;;;;;2.96;70.40;102021.97;1390327;93;21912;-86
2021/10/24 19:35:48;;;;;;;124.40;58.23;;;;;;;2.98;70.47;102026.70;1393472;92;23664;-86
2021/10/24 19:38:14;;;;;;;107.30;54.43;;;;;;;2.97;70.74;102021.09;1397722;93;21805;-86
2021/10/24 19:40:40;;;;;;;115.40;54.73;;;;;;;2.88;71.03;102026.22;1394269;93;21775;-86
2021/10/24 19:43:07;;;;;;;122.90;64.13;;;;;;;2.79;70.94;102027.00;1396145;92;22781;-85
2021/10/24 19:45:33;;;;;;;120.47;60.73;;;;;;;2.73;71.42;102028.09;1385757;93;21884;-85
2021/10/24 19:48:00;;;;;;;111.87;55.37;;;;;;;2.67;71.35;102029.17;1401454;93;21922;-85
2021/10/24 19:50:26;;;;;;;120.10;54.60;;;;;;;2.60;71.31;102026.41;1367542;93;23927;-86
2021/10/24 19:52:53;;;;;;;110.10;53.17;;;;;;;2.56;71.25;102030.05;1385578;94;21565;-86
2021/10/24 19:55:24;;;;;;;115.90;50.93;;;;;;;2.54;71.28;102022.72;1387275;94;21734;-85
2021/10/24 19:57:49;;;;;;;103.43;46.97;;;;;;;2.55;71.25;102030.09;1383421;93;21887;-85
2021/10/24 20:00:16;;;;;;;98.50;47.53;;;;;;;2.52;71.96;102033.67;1402800;93;21921;-86
2021/10/24 20:02:44;;;;;;;123.60;52.03;;;;;;;2.53;70.94;102024.91;1404132;92;22332;-85
2021/10/24 20:05:10;;;;;;;109.63;52.73;;;;;;;2.52;70.25;102027.59;1388784;92;21891;-85
2021/10/24 20:07:37;;;;;;;116.33;51.17;;;;;;;2.49;71.52;102027.25;1384616;94;22661;-86
2021/10/24 20:10:05;;;;;;;116.57;48.47;;;;;;;2.47;71.59;102030.37;1384880;94;21648;-86
2021/10/24 20:12:31;;;;;;;117.30;53.17;;;;;;;2.40;71.51;102028.91;1382984;94;21783;-85
2021/10/24 20:14:58;;;;;;;102.63;45.30;;;;;;;2.38;70.78;102028.09;1386682;94;23925;-85
2021/10/24 20:17:24;;;;;;;109.53;48.07;;;;;;;2.39;72.01;102036.35;1389735;94;21735;-85
2021/10/24 20:19:50;;;;;;;105.27;48.57;;;;;;;2.35;72.29;102030.82;1388138;94;21732;-86
2021/10/24 20:22:17;;;;;;;116.77;53.63;;;;;;;2.31;72.31;102035.77;1384917;93;21755;-86
2021/10/24 20:24:43;;;;;;;98.77;48.17;;;;;;;2.20;72.96;102039.61;1386897;93;21797;-86
2021/10/24 20:27:11;;;;;;;100.17;48.40;;;;;;;2.10;73.35;102036.94;1386393;93;22429;-86
2021/10/24 20:29:38;;;;;;;110.90;47.43;;;;;;;2.02;73.21;102038.50;1459906;94;21406;-87
2021/10/24 20:32:07;;;;;;;121.97;47.27;;;;;;;1.97;73.62;102033.88;1352934;94;22654;-86
2021/10/24 20:34:34;;;;;;;125.90;50.13;;;;;;;1.97;73.22;102038.26;1316821;94;21661;-86
2021/10/24 20:37:01;;;;;;;129.50;55.23;;;;;;;1.95;72.63;102039.60;1318751;94;21687;-86
2021/10/24 20:39:27;;;;;;;122.57;53.60;;;;;;;1.97;72.75;102038.26;1323157;93;21940;-86
2021/10/24 20:41:54;;;;;;;117.13;49.43;;;;;;;2.02;72.88;102045.03;1316481;94;21477;-86
2021/10/24 20:44:21;;;;;;;111.83;51.50;;;;;;;2.02;73.88;102042.88;1347986;94;21560;-86
2021/10/24 20:46:48;;;;;;;108.93;49.00;;;;;;;1.95;73.82;102048.74;1315796;94;21821;-86
2021/10/24 20:49:16;;;;;;;107.63;48.40;;;;;;;1.87;73.30;102044.27;1385530;94;21820;-85
2021/10/24 20:51:43;;;;;;;109.23;48.73;;;;;;;1.82;73.25;102034.88;1381925;94;21887;-86
2021/10/24 20:54:09;;;;;;;110.93;50.03;;;;;;;1.79;73.71;102037.13;1385665;94;22899;-86
2021/10/24 20:56:35;;;;;;;102.83;42.93;;;;;;;1.76;74.16;102030.26;1381085;93;21850;-86
2021/10/24 20:59:02;;;;;;;99.07;45.10;;;;;;;1.73;74.86;102037.34;1377889;94;22641;-87
2021/10/24 21:01:28;;;;;;;96.50;43.03;;;;;;;1.68;75.50;102044.02;1386565;94;21771;-87
2021/10/24 21:03:55;;;;;;;109.00;48.43;;;;;;;1.64;75.33;102046.34;1383941;94;22725;-86
2021/10/24 21:06:22;;;;;;;124.40;53.90;;;;;;;1.56;74.75;102035.30;1376979;94;22740;-86
2021/10/24 21:08:48;;;;;;;131.63;55.50;;;;;;;1.45;75.18;102037.40;1362185;94;22119;-86
2021/10/24 21:11:15;;;;;;;122.10;53.17;;;;;;;1.37;74.98;102036.33;1386686;93;22679;-86